Time;durP1;ratioP1;P1;durP2;ratioP2;P2;SDS_P1;SDS_P2;PMS_P1;PMS_P2;Temp;Humidity;BMP_temperature;BMP_pressure;BME280_temperature;BME280_humidity;BME280_pressure;Samples;Min_cycle;Max_cycle;Signal;HPM_P1;HPM_P2
2021/04/21 00:01:51;;;;;;;12.98;10.35;;;7.40;99.90;;;;;;5018941;28;20433;-74
2021/04/21 00:04:18;;;;;;;10.85;9.75;;;7.40;99.90;;;;;;5015954;28;20026;-75
2021/04/21 00:06:44;;;;;;;13.98;11.77;;;7.30;99.90;;;;;;5002409;28;20031;-75
2021/04/21 00:09:21;;;;;;;12.63;10.48;;;7.30;99.90;;;;;;5009109;28;20108;-74
2021/04/21 00:11:49;;;;;;;11.50;10.13;;;7.30;99.90;;;;;;5001150;28;20675;-75
2021/04/21 00:14:17;;;;;;;12.90;10.68;;;7.30;99.90;;;;;;5021450;28;20034;-75
2021/04/21 00:16:45;;;;;;;14.75;11.63;;;7.30;99.90;;;;;;5010709;28;20026;-75
2021/04/21 00:19:12;;;;;;;12.88;11.50;;;7.30;99.90;;;;;;5010145;28;20018;-73
2021/04/21 00:21:39;;;;;;;11.77;10.57;;;7.30;99.90;;;;;;5011559;28;20310;-74
2021/04/21 00:24:08;;;;;;;14.15;11.00;;;7.20;99.90;;;;;;5006430;28;20029;-75
2021/04/21 00:26:34;;;;;;;12.55;11.20;;;7.10;99.90;;;;;;5011012;28;20018;-75
2021/04/21 00:29:00;;;;;;;12.55;11.25;;;7.10;99.90;;;;;;5011967;28;20576;-77
2021/04/21 00:31:26;;;;;;;15.57;12.10;;;7.10;99.90;;;;;;5014493;28;20520;-75
2021/04/21 00:33:58;;;;;;;13.05;11.75;;;7.00;99.90;;;;;;4999915;28;20018;-75
2021/04/21 00:36:26;;;;;;;13.25;11.70;;;7.00;99.90;;;;;;5004370;28;20030;-74
2021/04/21 00:38:53;;;;;;;17.45;10.48;;;7.00;99.90;;;;;;5012135;28;20030;-75
2021/04/21 00:41:34;;;;;;;13.35;10.98;;;7.00;99.90;;;;;;5011879;28;20022;-75
2021/04/21 00:44:23;;;;;;;13.20;11.45;;;7.00;99.90;;;;;;4991558;28;20045;-75
2021/04/21 00:47:11;;;;;;;12.48;11.25;;;7.00;99.90;;;;;;5008632;28;20022;-74
2021/04/21 00:50:15;;;;;;;26.98;11.45;;;7.10;99.90;;;;;;5009743;28;20113;-75
2021/04/21 00:52:56;;;;;;;18.20;12.35;;;7.00;99.90;;;;;;5003499;28;20025;-74
2021/04/21 00:55:33;;;;;;;15.57;11.70;;;7.00;99.90;;;;;;5003978;28;20022;-74
2021/04/21 00:58:11;;;;;;;14.35;11.05;;;7.00;99.90;;;;;;5011287;28;20022;-74
2021/04/21 01:00:43;;;;;;;14.15;11.85;;;7.00;99.90;;;;;;5008059;28;20037;-74
2021/04/21 01:03:19;;;;;;;14.30;12.00;;;6.90;99.90;;;;;;5009167;28;20033;-74
2021/04/21 01:06:15;;;;;;;12.57;11.25;;;6.90;1.00;;;;;;4995224;28;20458;-75
2021/04/21 01:08:45;;;;;;;12.30;10.88;;;6.80;1.00;;;;;;5014449;28;20061;-75
2021/04/21 01:11:20;;;;;;;13.85;12.10;;;6.70;1.00;;;;;;5007429;28;20029;-74
2021/04/21 01:13:51;;;;;;;14.35;12.68;;;6.70;1.00;;;;;;5007142;28;20026;-74
2021/04/21 01:16:24;;;;;;;15.05;10.88;;;6.70;1.00;;;;;;5006764;28;20017;-74
2021/04/21 01:18:53;;;;;;;15.20;11.70;;;6.70;1.00;;;;;;5005324;28;20065;-74
2021/04/21 01:21:35;;;;;;;16.75;11.38;;;6.60;1.00;;;;;;5016560;28;20036;-74
2021/04/21 01:24:28;;;;;;;14.70;11.40;;;6.60;1.00;;;;;;5014379;28;20033;-74
2021/04/21 01:27:03;;;;;;;17.33;13.35;;;6.60;1.00;;;;;;5008944;28;20504;-75
2021/04/21 01:29:41;;;;;;;15.15;12.25;;;6.50;1.00;;;;;;5027006;23;20119;-71
2021/04/21 01:32:17;;;;;;;13.80;11.73;;;6.50;1.00;;;;;;5008688;28;20026;-72
2021/04/21 01:34:46;;;;;;;12.90;11.63;;;6.50;1.00;;;;;;5017730;28;20014;-73
2021/04/21 01:37:16;;;;;;;13.52;12.07;;;6.50;1.00;;;;;;5016626;28;20477;-71
2021/04/21 01:39:48;;;;;;;14.52;12.00;;;6.50;1.00;;;;;;5017398;28;20029;-71
2021/04/21 01:42:17;;;;;;;15.13;12.95;;;6.50;1.00;;;;;;5015227;28;20088;-73
2021/04/21 01:44:45;;;;;;;16.10;11.82;;;6.50;1.00;;;;;;5015916;28;20371;-72
2021/04/21 01:47:16;;;;;;;14.05;12.18;;;6.50;1.00;;;;;;5016072;28;20018;-72
2021/04/21 01:49:56;;;;;;;14.63;12.75;;;6.40;1.00;;;;;;5016930;28;20026;-71
2021/04/21 01:52:21;;;;;;;17.23;12.68;;;6.40;1.00;;;;;;5009806;28;20068;-72
2021/04/21 01:54:52;;;;;;;16.05;12.30;;;6.40;1.00;;;;;;5014581;28;20041;-72
2021/04/21 01:57:28;;;;;;;15.25;12.10;;;6.40;1.00;;;;;;5008145;28;20446;-72
2021/04/21 02:00:03;;;;;;;13.38;11.98;;;6.40;1.00;;;;;;5010195;28;20103;-72
2021/04/21 02:02:38;;;;;;;15.63;13.15;;;6.40;1.00;;;;;;5016613;28;20164;-72
2021/04/21 02:05:23;;;;;;;15.30;13.10;;;6.30;1.00;;;;;;5007651;28;20025;-71
2021/04/21 02:07:59;;;;;;;16.40;14.65;;;6.20;1.00;;;;;;5008909;28;20156;-71
2021/04/21 02:10:35;;;;;;;16.30;13.32;;;6.20;1.00;;;;;;5014204;28;20046;-72
2021/04/21 02:13:14;;;;;;;14.90;12.90;;;6.20;1.00;;;;;;5018629;28;20026;-72
2021/04/21 02:16:04;;;;;;;15.30;13.27;;;6.20;1.00;;;;;;5017558;28;20029;-73
2021/04/21 02:18:48;;;;;;;15.02;13.43;;;6.20;1.00;;;;;;5014389;28;20389;-73
2021/04/21 02:21:36;;;;;;;17.25;13.65;;;6.20;1.00;;;;;;5012944;28;20564;-74
2021/04/21 02:24:27;;;;;;;18.60;14.57;;;6.20;1.00;;;;;;5013230;28;20018;-72
2021/04/21 02:26:58;;;;;;;18.17;15.00;;;6.20;1.00;;;;;;4997661;28;20033;-72
2021/04/21 02:29:35;;;;;;;19.90;15.15;;;6.20;1.00;;;;;;5012814;28;20034;-73
2021/04/21 02:32:30;;;;;;;16.17;14.45;;;6.10;1.00;;;;;;5010107;28;20108;-72
2021/04/21 02:35:15;;;;;;;16.13;14.15;;;6.10;1.00;;;;;;5012247;28;20485;-73
2021/04/21 02:38:04;;;;;;;18.67;15.43;;;6.10;1.00;;;;;;5009696;28;20027;-72
2021/04/21 02:40:37;;;;;;;22.70;16.80;;;6.10;1.00;;;;;;5015242;28;20022;-72
2021/04/21 02:43:11;;;;;;;20.17;16.88;;;6.10;1.00;;;;;;4998123;28;20493;-74
2021/04/21 02:46:09;;;;;;;18.80;15.65;;;6.00;1.00;;;;;;5016419;28;20033;-72
2021/04/21 02:48:45;;;;;;;19.88;15.48;;;5.90;1.00;;;;;;5012762;28;20026;-72
2021/04/21 02:51:31;;;;;;;21.38;15.68;;;5.90;1.00;;;;;;5005761;28;20029;-73
2021/04/21 02:54:20;;;;;;;18.67;15.30;;;5.90;1.00;;;;;;4997603;28;20026;-72
2021/04/21 02:57:00;;;;;;;25.02;17.40;;;5.80;1.00;;;;;;5007341;28;20105;-72
2021/04/21 02:59:37;;;;;;;21.17;16.83;;;5.90;1.00;;;;;;5007027;28;20041;-72
2021/04/21 03:02:09;;;;;;;20.35;16.48;;;5.80;1.00;;;;;;5004611;28;20507;-72
2021/04/21 03:04:39;;;;;;;20.73;16.48;;;5.80;1.00;;;;;;5012503;28;20026;-71
2021/04/21 03:07:14;;;;;;;22.03;15.63;;;5.80;1.00;;;;;;5006478;28;20030;-70
2021/04/21 03:10:01;;;;;;;20.90;17.42;;;5.70;1.00;;;;;;5012884;28;20288;-70
2021/04/21 03:12:29;;;;;;;20.17;16.67;;;5.70;1.00;;;;;;5018356;28;20060;-72
2021/04/21 03:15:05;;;;;;;21.48;17.08;;;5.70;1.00;;;;;;5014252;28;20037;-72
2021/04/21 03:17:31;;;;;;;21.50;16.83;;;5.70;1.00;;;;;;5019238;28;20026;-71
2021/04/21 03:20:14;;;;;;;25.17;17.17;;;5.70;1.00;;;;;;5020445;28;20100;-72
2021/04/21 03:22:44;;;;;;;24.05;16.85;;;5.70;1.00;;;;;;5016219;28;20025;-71
2021/04/21 03:25:14;;;;;;;23.05;18.13;;;5.70;1.00;;;;;;5026934;28;20061;-71
2021/04/21 03:27:48;;;;;;;24.67;16.70;;;5.70;1.00;;;;;;5021424;28;20477;-72
2021/04/21 03:30:16;;;;;;;18.40;16.40;;;5.70;1.00;;;;;;5008834;28;20037;-71
2021/04/21 03:32:52;;;;;;;23.48;17.50;;;5.60;1.00;;;;;;5015257;28;20026;-72
2021/04/21 03:35:19;;;;;;;23.67;17.88;;;5.60;1.00;;;;;;5014019;28;20018;-72
2021/04/21 03:38:00;;;;;;;25.65;17.00;;;5.60;1.00;;;;;;5015249;28;20034;-72
2021/04/21 03:40:25;;;;;;;25.55;17.85;;;5.60;1.00;;;;;;5007323;28;20035;-71
2021/04/21 03:42:51;;;;;;;27.65;17.77;;;5.60;1.00;;;;;;5016438;28;20124;-71
2021/04/21 03:45:17;;;;;;;24.25;17.10;;;5.50;1.00;;;;;;5015572;28;20024;-72
2021/04/21 03:47:43;;;;;;;23.67;17.13;;;5.50;1.00;;;;;;5015969;28;20036;-72
2021/04/21 03:50:11;;;;;;;26.48;17.23;;;5.50;1.00;;;;;;5014149;28;20033;-72
2021/04/21 03:52:43;;;;;;;19.02;16.35;;;5.50;1.00;;;;;;5013360;28;20025;-72
2021/04/21 03:55:11;;;;;;;23.10;16.67;;;5.50;1.00;;;;;;5015864;28;20401;-73
2021/04/21 03:57:43;;;;;;;22.40;18.98;;;5.50;1.00;;;;;;5011895;28;20053;-71
2021/04/21 04:00:13;;;;;;;20.80;17.55;;;5.50;1.00;;;;;;5009311;28;20017;-73
2021/04/21 04:02:43;;;;;;;23.42;17.92;;;5.40;1.00;;;;;;5011270;28;20022;-71
2021/04/21 04:05:11;;;;;;;20.52;17.05;;;5.40;1.00;;;;;;5017951;28;20443;-72
2021/04/21 04:07:41;;;;;;;21.02;16.92;;;5.40;1.00;;;;;;5016524;28;20026;-72
2021/04/21 04:10:12;;;;;;;24.38;18.52;;;5.40;1.00;;;;;;5010151;28;20046;-73
2021/04/21 04:12:40;;;;;;;23.27;17.02;;;5.40;1.00;;;;;;5003636;28;20034;-73
2021/04/21 04:15:08;;;;;;;28.60;18.70;;;5.40;1.00;;;;;;5011640;28;20023;-73
2021/04/21 04:17:37;;;;;;;25.30;19.45;;;5.40;1.00;;;;;;5019166;28;20100;-73
2021/04/21 04:20:06;;;;;;;28.80;19.38;;;5.40;1.00;;;;;;5014176;28;20041;-72
2021/04/21 04:22:35;;;;;;;26.33;19.48;;;5.30;1.00;;;;;;5004806;28;20030;-71
2021/04/21 04:25:02;;;;;;;29.98;19.10;;;5.30;1.00;;;;;;5008746;28;20027;-72
2021/04/21 04:27:30;;;;;;;30.20;19.50;;;5.30;1.00;;;;;;5013070;28;20029;-72
2021/04/21 04:29:58;;;;;;;26.42;18.10;;;5.30;1.00;;;;;;5010738;28;20034;-71
2021/04/21 04:32:26;;;;;;;23.38;18.23;;;5.30;1.00;;;;;;5013992;28;20036;-71
2021/04/21 04:34:56;;;;;;;27.13;19.45;;;5.40;1.00;;;;;;5008163;28;20021;-72
2021/04/21 04:37:24;;;;;;;23.85;18.20;;;5.40;1.00;;;;;;5013190;28;20026;-71
2021/04/21 04:39:51;;;;;;;24.00;18.13;;;5.50;1.00;;;;;;5032363;28;20412;-71
2021/04/21 04:42:17;;;;;;;23.60;18.50;;;5.60;1.00;;;;;;5025040;28;20040;-72
2021/04/21 04:44:44;;;;;;;26.08;18.27;;;5.80;1.00;;;;;;5020187;28;20124;-72
2021/04/21 04:47:23;;;;;;;21.60;17.45;;;5.90;1.00;;;;;;5020924;28;20084;-72
2021/04/21 04:50:01;;;;;;;29.08;16.85;;;6.10;1.00;;;;;;5036165;28;20064;-72
2021/04/21 04:52:31;;;;;;;23.48;17.75;;;6.30;1.00;;;;;;5011918;28;20406;-72
2021/04/21 04:54:59;;;;;;;21.00;16.15;;;6.40;1.00;;;;;;5019001;28;20022;-73
2021/04/21 04:57:25;;;;;;;23.52;16.65;;;6.60;1.00;;;;;;5014869;28;20080;-73
2021/04/21 04:59:51;;;;;;;26.40;16.23;;;6.70;99.90;;;;;;5015669;28;20025;-72
2021/04/21 05:02:18;;;;;;;20.35;16.52;;;6.80;99.90;;;;;;5020354;28;20037;-71
2021/04/21 05:04:58;;;;;;;27.10;16.80;;;7.10;99.90;;;;;;5013584;28;20030;-72
2021/04/21 05:07:39;;;;;;;24.17;16.90;;;7.30;99.90;;;;;;5012070;28;20462;-72
2021/04/21 05:10:09;;;;;;;24.67;15.65;;;7.50;99.90;;;;;;5016000;28;20026;-72
2021/04/21 05:12:39;;;;;;;22.25;15.68;;;7.90;99.90;;;;;;5006760;28;20379;-72
2021/04/21 05:15:07;;;;;;;20.98;14.85;;;8.00;99.90;;;;;;5007720;28;20393;-72
2021/04/21 05:17:51;;;;;;;16.90;14.68;;;8.30;99.90;;;;;;5011043;28;20018;-72
2021/04/21 05:20:48;;;;;;;23.33;14.10;;;9.00;99.90;;;;;;5011051;28;20093;-72
2021/04/21 05:23:17;;;;;;;18.50;14.63;;;9.50;99.90;;;;;;5000201;28;20086;-74
2021/04/21 05:26:20;;;;;;;17.88;14.85;;;9.60;99.90;;;;;;5016121;28;20049;-73
2021/04/21 05:28:51;;;;;;;18.38;14.88;;;10.20;98.50;;;;;;5000831;28;20121;-72
2021/04/21 05:31:36;;;;;;;17.92;15.77;;;10.10;95.70;;;;;;5012277;28;20033;-73
2021/04/21 05:34:20;;;;;;;21.50;14.70;;;10.30;1.00;;;;;;5013516;28;20030;-73
2021/04/21 05:37:08;;;;;;;22.10;15.48;;;10.70;1.00;;;;;;5021067;28;20085;-71
2021/04/21 05:39:42;;;;;;;22.05;16.00;;;10.30;1.00;;;;;;5017122;28;20030;-73
2021/04/21 05:42:45;;;;;;;20.50;14.70;;;10.30;9.60;;;;;;5017909;28;20096;-73
2021/04/21 05:45:40;;;;;;;19.70;14.35;;;10.50;16.00;;;;;;5006014;28;20076;-73
2021/04/21 05:48:11;;;;;;;18.77;16.40;;;10.20;69.00;;;;;;4997478;28;20029;-71
2021/04/21 05:50:55;;;;;;;;;;;10.90;1.00;;;;;;5010464;28;20030;-74
2021/04/21 05:53:50;;;;;;;15.88;14.15;;;11.10;1.00;;;;;;5016104;28;19925;-72
2021/04/21 05:56:52;;;;;;;18.67;15.68;;;11.10;1.00;;;;;;5008608;28;20018;-71
2021/04/21 05:59:58;;;;;;;16.83;13.85;;;11.10;1.00;;;;;;5011945;28;20482;-74
2021/04/21 06:02:26;;;;;;;20.98;14.07;;;11.00;1.00;;;;;;5005055;28;20486;-72
2021/04/21 06:05:13;;;;;;;23.00;15.80;;;10.00;28.80;;;;;;5003704;28;20023;-73
2021/04/21 06:07:39;;;;;;;19.95;15.98;;;9.70;99.90;;;;;;5005135;28;20086;-75
2021/04/21 06:10:24;;;;;;;26.42;16.50;;;9.80;99.90;;;;;;5008455;28;20409;-74
2021/04/21 06:12:51;;;;;;;27.13;18.27;;;9.70;99.90;;;;;;5009003;28;20432;-72
2021/04/21 06:15:22;;;;;;;25.35;16.35;;;9.70;99.90;;;;;;5013285;28;20140;-72
2021/04/21 06:17:53;;;;;;;22.35;16.80;;;9.70;99.90;;;;;;5003433;28;20166;-72
2021/04/21 06:20:35;;;;;;;24.20;17.25;;;9.40;99.90;;;;;;5010600;28;20093;-72
2021/04/21 06:23:24;;;;;;;20.83;16.88;;;9.00;99.90;;;;;;5006735;28;20037;-72
2021/04/21 06:26:02;;;;;;;22.02;16.70;;;9.20;99.90;;;;;;5004507;28;20029;-73
2021/04/21 06:28:28;;;;;;;26.17;17.35;;;9.20;99.90;;;;;;5013675;28;21666;-72
2021/04/21 06:31:11;;;;;;;19.58;16.85;;;9.40;99.90;;;;;;5012804;28;20140;-72
2021/04/21 06:33:39;;;;;;;22.70;17.83;;;9.70;99.90;;;;;;5014177;28;20029;-71
2021/04/21 06:36:06;;;;;;;30.70;16.90;;;9.80;99.90;;;;;;5015236;28;20033;-71
2021/04/21 06:38:34;;;;;;;20.77;17.13;;;10.00;99.90;;;;;;5006553;28;20109;-73
2021/04/21 06:41:00;;;;;;;22.27;17.77;;;10.00;99.90;;;;;;5008347;28;20014;-72
2021/04/21 06:43:27;;;;;;;18.73;16.42;;;10.00;99.90;;;;;;5015923;28;20087;-74
2021/04/21 06:45:53;;;;;;;20.90;17.27;;;10.20;91.20;;;;;;5015463;28;20086;-72
2021/04/21 06:48:27;;;;;;;24.00;17.80;;;10.40;53.90;;;;;;5024272;28;20025;-73
2021/04/21 06:50:53;;;;;;;24.02;18.65;;;10.50;59.90;;;;;;5019516;28;20445;-72
2021/04/21 06:53:27;;;;;;;22.38;16.95;;;10.60;51.20;;;;;;5021341;28;20026;-73
2021/04/21 06:55:57;;;;;;;26.15;17.58;;;10.70;42.60;;;;;;5018474;28;20296;-73
2021/04/21 06:58:23;;;;;;;26.60;19.10;;;10.70;14.60;;;;;;5022632;28;20052;-73
2021/04/21 07:00:49;;;;;;;23.52;17.02;;;10.80;1.00;;;;;;5020219;28;20061;-72
2021/04/21 07:03:17;;;;;;;23.58;18.48;;;10.60;34.40;;;;;;5012747;28;20030;-72
2021/04/21 07:05:44;;;;;;;26.48;17.35;;;10.70;14.30;;;;;;5007464;28;20036;-73
2021/04/21 07:08:10;;;;;;;32.40;18.55;;;10.70;21.70;;;;;;5009323;28;20018;-72
2021/04/21 07:10:46;;;;;;;19.65;16.42;;;11.00;1.00;;;;;;5013040;28;20026;-71
2021/04/21 07:13:21;;;;;;;23.15;18.13;;;11.00;1.00;;;;;;5014419;28;20482;-73
2021/04/21 07:15:50;;;;;;;24.05;17.88;;;11.00;1.00;;;;;;5014891;28;20025;-73
2021/04/21 07:18:18;;;;;;;24.08;17.10;;;11.30;1.00;;;;;;5019808;28;20085;-71
2021/04/21 07:20:44;;;;;;;29.25;17.75;;;11.50;1.00;;;;;;5017055;28;20037;-73
2021/04/21 07:23:11;;;;;;;25.55;18.40;;;11.50;1.00;;;;;;5014454;28;20498;-75
2021/04/21 07:25:39;;;;;;;23.83;17.00;;;11.20;1.00;;;;;;5013922;28;20029;-74
2021/04/21 07:28:05;;;;;;;26.80;18.00;;;11.20;1.00;;;;;;5007433;28;20040;-75
2021/04/21 07:30:32;;;;;;;22.05;18.40;;;11.40;1.00;;;;;;5001098;28;20061;-74
2021/04/21 07:32:59;;;;;;;21.00;17.40;;;11.70;1.00;;;;;;5007908;28;20029;-73
2021/04/21 07:35:26;;;;;;;23.27;17.52;;;11.90;99.90;;;;;;5018477;28;20030;-75
2021/04/21 07:37:55;;;;;;;26.60;18.48;;;11.50;1.00;;;;;;5021780;28;20101;-73
2021/04/21 07:40:23;;;;;;;29.13;18.83;;;12.00;1.00;;;;;;5015951;28;20029;-73
2021/04/21 07:42:49;;;;;;;22.40;18.80;;;12.20;99.90;;;;;;5021129;28;20029;-73
2021/04/21 07:45:19;;;;;;;34.40;20.02;;;12.30;99.90;;;;;;5005027;28;20077;-74
2021/04/21 07:47:45;;;;;;;23.45;19.05;;;12.30;99.90;;;;;;5001379;28;20381;-72
2021/04/21 07:50:11;;;;;;;27.70;18.52;;;12.40;99.90;;;;;;5013771;28;20117;-74
2021/04/21 07:52:37;;;;;;;27.35;18.95;;;12.60;99.90;;;;;;5014753;28;20397;-74
2021/04/21 07:55:05;;;;;;;23.83;17.85;;;12.60;99.90;;;;;;5009784;28;20026;-73
2021/04/21 07:57:31;;;;;;;25.98;18.77;;;12.80;99.90;;;;;;5014428;28;20052;-73
2021/04/21 07:59:56;;;;;;;20.73;18.27;;;13.00;99.90;;;;;;5009791;28;20082;-73
2021/04/21 08:02:22;;;;;;;33.08;20.00;;;13.20;99.90;;;;;;4996531;28;20045;-72
2021/04/21 08:04:49;;;;;;;24.90;17.50;;;13.40;99.90;;;;;;5005734;28;20030;-73
2021/04/21 08:07:36;;;;;;;24.90;17.23;;;13.30;99.90;;;;;;5014359;28;20022;-73
2021/04/21 08:10:05;;;;;;;19.75;17.52;;;13.30;91.10;;;;;;5014379;28;20161;-73
2021/04/21 08:12:34;;;;;;;22.70;18.92;;;13.30;99.90;;;;;;5016838;28;20489;-73
2021/04/21 08:15:09;;;;;;;27.50;18.35;;;13.30;45.30;;;;;;5018153;28;20133;-73
2021/04/21 08:17:51;;;;;;;24.92;19.15;;;13.20;82.10;;;;;;5021326;28;20018;-73
2021/04/21 08:20:33;;;;;;;26.13;18.02;;;13.40;1.00;;;;;;5013486;28;20057;-72
2021/04/21 08:23:07;;;;;;;21.00;18.35;;;13.60;19.60;;;;;;5014687;28;20443;-72
2021/04/21 08:25:33;;;;;;;23.30;18.65;;;13.80;1.00;;;;;;5009240;28;20416;-74
2021/04/21 08:28:00;;;;;;;24.25;18.33;;;13.80;1.00;;;;;;5020283;28;20034;-73
2021/04/21 08:30:30;;;;;;;27.17;19.40;;;14.10;99.90;;;;;;4996815;28;536942;-74
2021/04/21 08:32:56;;;;;;;29.58;19.33;;;14.00;99.90;;;;;;5001146;28;20095;-75
2021/04/21 08:35:22;;;;;;;27.38;19.45;;;14.20;99.90;;;;;;5016832;28;20466;-72
2021/04/21 08:37:47;;;;;;;23.35;18.52;;;14.40;67.60;;;;;;5017041;28;20088;-73
2021/04/21 08:40:17;;;;;;;26.58;19.23;;;14.50;1.00;;;;;;5018044;28;20174;-74
2021/04/21 08:42:47;;;;;;;22.92;17.48;;;14.70;99.90;;;;;;5023770;28;20029;-72
2021/04/21 08:45:13;;;;;;;24.48;18.05;;;14.80;99.90;;;;;;5015053;28;20053;-73
2021/04/21 08:47:41;;;;;;;21.95;18.33;;;14.80;6.60;;;;;;5015111;28;20032;-74
2021/04/21 08:50:08;;;;;;;23.85;17.35;;;14.90;99.90;;;;;;5012035;28;20022;-74
2021/04/21 08:52:56;;;;;;;21.50;17.63;;;15.00;99.90;;;;;;5000167;28;20031;-73
2021/04/21 08:55:25;;;;;;;22.02;17.45;;;15.20;99.90;;;;;;4998110;28;20482;-74
2021/04/21 08:57:52;;;;;;;19.88;17.10;;;15.20;99.90;;;;;;5003225;28;20042;-73
2021/04/21 09:00:19;;;;;;;18.58;16.40;;;15.30;32.10;;;;;;5018831;28;20021;-74
2021/04/21 09:02:45;;;;;;;22.05;17.33;;;15.50;1.00;;;;;;5011667;28;20057;-73
2021/04/21 09:05:13;;;;;;;24.33;17.48;;;15.50;99.90;;;;;;5008903;28;20113;-73
2021/04/21 09:07:39;;;;;;;23.08;17.33;;;15.50;99.90;;;;;;5016571;28;20557;-73
2021/04/21 09:10:11;;;;;;;20.90;16.58;;;15.60;17.90;;;;;;5015495;28;20489;-75
2021/04/21 09:12:37;;;;;;;18.60;15.68;;;15.70;1.00;;;;;;5015759;28;20038;-74
2021/04/21 09:15:05;;;;;;;17.30;15.50;;;16.00;99.90;;;;;;5007688;28;20022;-74
2021/04/21 09:17:31;;;;;;;17.20;14.15;;;15.90;1.00;;;;;;5017338;28;20025;-73
2021/04/21 09:19:58;;;;;;;19.17;15.20;;;16.10;1.00;;;;;;5010524;28;20370;-74
2021/04/21 09:22:25;;;;;;;18.33;15.05;;;16.10;99.90;;;;;;5016466;28;20485;-73
2021/04/21 09:24:58;;;;;;;18.92;15.43;;;16.20;99.90;;;;;;5014225;28;20389;-73
2021/04/21 09:27:26;;;;;;;14.20;12.57;;;16.30;99.90;;;;;;5016239;28;20022;-72
2021/04/21 09:30:11;;;;;;;16.70;13.23;;;16.40;1.00;;;;;;5011949;28;20117;-74
2021/04/21 09:32:45;;;;;;;14.05;12.43;;;16.40;1.00;;;;;;5031678;28;20037;-70
2021/04/21 09:35:23;;;;;;;14.57;12.90;;;16.50;1.00;;;;;;5035245;28;20023;-74
2021/04/21 09:37:52;;;;;;;13.38;11.68;;;16.40;1.00;;;;;;5013244;28;20026;-73
2021/04/21 09:40:33;;;;;;;13.27;11.60;;;16.80;99.90;;;;;;5021892;28;20082;-72
2021/04/21 09:42:59;;;;;;;19.08;13.52;;;16.80;99.90;;;;;;5017270;28;20089;-73
2021/04/21 09:45:35;;;;;;;14.60;12.30;;;16.90;1.00;;;;;;5016966;28;20030;-74
2021/04/21 09:48:10;;;;;;;14.90;12.55;;;16.80;1.00;;;;;;5014494;28;20061;-74
2021/04/21 09:50:37;;;;;;;15.15;13.05;;;17.30;99.90;;;;;;5010353;28;20029;-74
2021/04/21 09:53:20;;;;;;;16.13;13.77;;;17.40;99.90;;;;;;5012214;28;20086;-74
2021/04/21 09:56:05;;;;;;;16.08;13.80;;;17.30;99.90;;;;;;4996473;28;20035;-73
2021/04/21 09:58:48;;;;;;;17.52;14.05;;;17.20;99.90;;;;;;4997255;28;20049;-73
2021/04/21 10:01:23;;;;;;;13.77;12.38;;;17.30;99.90;;;;;;5005696;28;20037;-72
2021/04/21 10:04:19;;;;;;;14.77;13.25;;;17.20;99.90;;;;;;5004257;28;20069;-72
2021/04/21 10:06:56;;;;;;;13.40;12.05;;;17.50;99.90;;;;;;5006194;28;20029;-72
2021/04/21 10:09:29;;;;;;;14.00;12.32;;;17.70;99.90;;;;;;5016624;28;20046;-70
2021/04/21 10:12:20;;;;;;;11.57;9.82;;;17.50;99.90;;;;;;5008265;28;20033;-71
2021/04/21 10:15:03;;;;;;;13.20;11.80;;;17.90;99.90;;;;;;5015922;28;20118;-73
2021/04/21 10:17:35;;;;;;;11.43;10.18;;;18.10;99.90;;;;;;5013277;28;20053;-71
2021/04/21 10:20:06;;;;;;;10.20;8.73;;;18.20;99.90;;;;;;5013668;28;20029;-71
2021/04/21 10:22:32;;;;;;;12.35;11.15;;;18.10;93.60;;;;;;5016492;28;20393;-71
2021/04/21 10:24:59;;;;;;;13.65;12.20;;;17.90;93.50;;;;;;5013278;28;20048;-71
2021/04/21 10:27:25;;;;;;;12.70;11.40;;;17.80;99.90;;;;;;5015376;28;20030;-71
2021/04/21 10:29:51;;;;;;;11.38;10.20;;;17.80;99.90;;;;;;5016633;28;20042;-72
2021/04/21 10:32:17;;;;;;;10.48;9.38;;;17.90;94.80;;;;;;5015803;28;20040;-72
2021/04/21 10:34:44;;;;;;;10.65;8.98;;;17.80;93.10;;;;;;5014924;28;20101;-73
2021/04/21 10:37:11;;;;;;;11.70;10.50;;;17.90;77.80;;;;;;5009678;28;20057;-71
2021/04/21 10:39:38;;;;;;;12.18;10.82;;;18.10;87.60;;;;;;5008083;28;20038;-70
2021/04/21 10:42:09;;;;;;;13.07;11.77;;;18.00;96.90;;;;;;5016637;28;20030;-72
2021/04/21 10:44:36;;;;;;;12.93;11.35;;;18.30;93.70;;;;;;5015314;28;20022;-72
2021/04/21 10:47:07;;;;;;;9.82;8.82;;;18.10;90.00;;;;;;5015717;28;20084;-72
2021/04/21 10:49:54;;;;;;;9.52;8.63;;;18.20;63.60;;;;;;5014265;28;20149;-72
2021/04/21 10:52:27;;;;;;;10.80;9.63;;;18.40;56.40;;;;;;5008977;28;20446;-72
2021/04/21 10:54:56;;;;;;;12.05;9.05;;;18.50;52.00;;;;;;4994943;28;20080;-72
2021/04/21 10:57:21;;;;;;;11.57;10.38;;;18.70;54.20;;;;;;4995978;28;20097;-72
2021/04/21 11:00:24;;;;;;;11.50;10.43;;;19.20;50.60;;;;;;5010849;28;20116;-72
2021/04/21 11:03:14;;;;;;;11.13;9.93;;;19.00;48.80;;;;;;5014415;28;20350;-71
2021/04/21 11:05:46;;;;;;;12.10;10.60;;;19.00;48.90;;;;;;5011841;28;20524;-72
2021/04/21 11:08:23;;;;;;;11.75;9.88;;;18.90;44.90;;;;;;4996708;28;20034;-71
2021/04/21 11:11:01;;;;;;;12.55;10.18;;;18.80;42.30;;;;;;4995291;28;20022;-71
2021/04/21 11:13:32;;;;;;;12.55;10.75;;;18.50;43.40;;;;;;4995512;28;20514;-74
2021/04/21 11:15:58;;;;;;;11.90;10.38;;;18.60;40.70;;;;;;5009930;28;20029;-72
2021/04/21 11:18:31;;;;;;;11.40;9.38;;;18.50;41.70;;;;;;5033128;28;20063;-71
2021/04/21 11:21:02;;;;;;;10.93;9.77;;;18.60;37.40;;;;;;5012324;28;20022;-72
2021/04/21 11:26:28;;;;;;;11.63;9.18;;;18.90;33.20;;;;;;5012417;28;20507;-72
2021/04/21 11:29:02;;;;;;;10.77;9.02;;;18.80;30.30;;;;;;4999388;28;20034;-72
2021/04/21 11:31:44;;;;;;;9.60;8.27;;;19.00;28.20;;;;;;5017825;28;20026;-73
2021/04/21 11:34:12;;;;;;;10.05;8.85;;;18.90;25.80;;;;;;5015797;28;20072;-71
2021/04/21 11:36:51;;;;;;;9.98;8.43;;;19.50;33.60;;;;;;5021793;28;20077;-72
2021/04/21 11:39:45;;;;;;;8.38;7.57;;;19.00;18.50;;;;;;5023962;28;20025;-72
2021/04/21 11:42:29;;;;;;;13.98;8.23;;;19.20;16.00;;;;;;5022442;28;20093;-72
2021/04/21 11:45:14;;;;;;;9.15;8.25;;;19.40;12.20;;;;;;5023050;28;20026;-72
2021/04/21 11:47:54;;;;;;;8.77;7.88;;;19.10;8.90;;;;;;5031069;28;20029;-71
2021/04/21 11:50:22;;;;;;;7.80;7.10;;;18.80;8.40;;;;;;5045602;28;20044;-72
2021/04/21 11:53:01;;;;;;;7.65;6.85;;;19.00;9.60;;;;;;5040323;28;20041;-73
2021/04/21 11:55:41;;;;;;;12.25;6.07;;;19.20;7.70;;;;;;5029374;28;20022;-73
2021/04/21 11:58:28;;;;;;;7.60;6.90;;;19.70;5.50;;;;;;5027186;28;20006;-71
2021/04/21 12:01:03;;;;;;;9.70;7.78;;;19.70;4.00;;;;;;5031971;28;20041;-69
2021/04/21 12:03:34;;;;;;;7.95;7.13;;;19.20;1.50;;;;;;5036544;28;20034;-70
2021/04/21 12:06:02;;;;;;;8.60;7.28;;;19.60;1.90;;;;;;5023419;28;20046;-70
2021/04/21 12:08:30;;;;;;;8.23;6.70;;;19.40;1.00;;;;;;5037431;28;20029;-71
2021/04/21 12:10:57;;;;;;;8.65;7.03;;;19.40;1.00;;;;;;5038156;28;20030;-71
2021/04/21 12:13:30;;;;;;;7.53;6.82;;;19.50;1.00;;;;;;5037716;28;20038;-71
2021/04/21 12:15:57;;;;;;;7.88;7.15;;;19.50;1.00;;;;;;5036815;28;20045;-71
2021/04/21 12:18:31;;;;;;;8.90;7.53;;;19.70;1.00;;;;;;5036047;28;20072;-73
2021/04/21 12:20:56;;;;;;;8.60;6.57;;;19.70;1.00;;;;;;5036449;28;20065;-70
2021/04/21 12:23:36;;;;;;;8.52;7.13;;;19.20;1.00;;;;;;5037211;28;20022;-72
2021/04/21 12:26:04;;;;;;;11.27;8.55;;;19.70;1.00;;;;;;5037907;28;20014;-71
2021/04/21 12:28:43;;;;;;;9.75;8.75;;;19.80;1.00;;;;;;5037221;28;20016;-71
2021/04/21 12:31:08;;;;;;;9.60;8.70;;;19.80;1.00;;;;;;5037683;28;20033;-72
2021/04/21 12:33:34;;;;;;;9.98;8.77;;;19.70;1.00;;;;;;5037223;28;20026;-74
2021/04/21 12:36:00;;;;;;;10.25;9.25;;;19.30;1.00;;;;;;5037324;28;20010;-75
2021/04/21 12:38:31;;;;;;;10.30;8.38;;;19.60;1.00;;;;;;5036776;28;20049;-75
2021/04/21 12:40:59;;;;;;;9.20;8.35;;;19.50;1.00;;;;;;5043166;28;20032;-74
2021/04/21 12:43:27;;;;;;;9.98;8.40;;;19.60;1.00;;;;;;5037358;28;20014;-74
2021/04/21 12:45:53;;;;;;;9.93;8.27;;;19.90;1.00;;;;;;5024226;28;20014;-73
2021/04/21 12:48:27;;;;;;;8.70;7.90;;;20.50;1.00;;;;;;5027664;28;20010;-73
2021/04/21 12:50:57;;;;;;;10.88;8.52;;;20.40;1.00;;;;;;5036173;28;20044;-74
2021/04/21 12:53:31;;;;;;;8.17;7.37;;;19.90;1.00;;;;;;5031920;28;20048;-75
2021/04/21 12:56:08;;;;;;;8.25;7.45;;;19.50;1.00;;;;;;5026484;28;20269;-75
2021/04/21 12:58:40;;;;;;;9.45;8.55;;;19.00;1.00;;;;;;5031509;28;20034;-74
2021/04/21 13:01:19;;;;;;;8.68;7.82;;;18.40;1.00;;;;;;5028988;28;20022;-75
2021/04/21 13:04:01;;;;;;;7.95;7.20;;;18.60;1.00;;;;;;5021327;28;20101;-75
2021/04/21 13:06:53;;;;;;;8.73;7.38;;;18.30;1.00;;;;;;5024437;28;20037;-75
2021/04/21 13:09:21;;;;;;;7.60;6.80;;;18.00;1.00;;;;;;5024693;28;20406;-75
2021/04/21 13:11:49;;;;;;;7.18;6.47;;;17.90;1.00;;;;;;5022945;28;20033;-75
2021/04/21 13:14:20;;;;;;;7.20;6.47;;;18.00;1.00;;;;;;5024409;28;20374;-73
2021/04/21 13:16:52;;;;;;;6.63;6.03;;;18.30;1.00;;;;;;5017982;28;20017;-74